Time;durP1;ratioP1;P1;durP2;ratioP2;P2;SDS_P1;SDS_P2;PMS_P1;PMS_P2;Temp;Humidity;BMP_temperature;BMP_pressure;BME280_temperature;BME280_humidity;BME280_pressure;Samples;Min_cycle;Max_cycle;Signal;HPM_P1;HPM_P2
2021/09/04 00:01:26;;;;;;;6.28;5.03;;;;;;;16.44;64.31;97347.44;4938286;29;20166;-81
2021/09/04 00:03:51;;;;;;;6.03;5.18;;;;;;;16.40;64.65;97351.66;4922743;29;20031;-80
2021/09/04 00:06:19;;;;;;;7.45;4.60;;;;;;;16.42;64.43;97352.19;4923066;29;20035;-81
2021/09/04 00:08:44;;;;;;;6.53;5.20;;;;;;;16.41;64.78;97353.25;4922323;29;20043;-81
2021/09/04 00:11:10;;;;;;;8.02;5.05;;;;;;;16.38;64.79;97345.91;4938789;29;20098;-81
2021/09/04 00:13:35;;;;;;;7.30;4.97;;;;;;;16.37;64.93;97344.34;4922936;29;20027;-81
2021/09/04 00:16:01;;;;;;;6.65;5.03;;;;;;;16.39;65.02;97340.38;4923459;29;20024;-81
2021/09/04 00:18:29;;;;;;;6.43;4.90;;;;;;;16.29;64.60;97319.47;4939203;29;20118;-81
2021/09/04 00:20:55;;;;;;;6.22;4.47;;;;;;;16.35;64.80;97334.13;4939312;29;20035;-81
2021/09/04 00:23:20;;;;;;;6.78;4.90;;;;;;;16.27;64.87;97335.50;4923716;29;20023;-81
2021/09/04 00:25:46;;;;;;;6.80;5.20;;;;;;;16.25;64.79;97340.25;4903091;29;20031;-81
2021/09/04 00:28:11;;;;;;;6.80;5.07;;;;;;;16.22;65.07;97340.78;4920424;29;20036;-81
2021/09/04 00:30:36;;;;;;;6.85;4.80;;;;;;;16.22;64.64;97337.41;4903570;29;20044;-80
2021/09/04 00:33:02;;;;;;;5.95;5.03;;;;;;;16.18;64.81;97333.75;4920243;29;20408;-81
2021/09/04 00:35:27;;;;;;;5.90;5.10;;;;;;;16.13;64.59;97323.31;4919436;29;20146;-81
2021/09/04 00:37:52;;;;;;;6.15;4.80;;;;;;;16.15;65.02;97340.34;4935341;29;20039;-81
2021/09/04 00:40:18;;;;;;;8.57;5.35;;;;;;;16.12;65.16;97335.63;4903514;29;20028;-81
2021/09/04 00:42:43;;;;;;;6.53;5.05;;;;;;;16.13;65.21;97336.44;4919528;29;20043;-81
2021/09/04 00:45:09;;;;;;;6.82;4.95;;;;;;;16.06;65.14;97332.28;4903338;29;20034;-81
2021/09/04 00:47:34;;;;;;;7.93;5.30;;;;;;;16.00;65.35;97322.09;4904197;29;20032;-81
2021/09/04 00:50:00;;;;;;;6.43;4.82;;;;;;;15.93;65.34;97317.13;4902954;29;20083;-80
2021/09/04 00:52:25;;;;;;;5.50;4.78;;;;;;;16.02;65.61;97333.09;4919376;29;20464;-81
2021/09/04 00:54:51;;;;;;;7.05;5.05;;;;;;;16.08;65.11;97337.25;4919296;29;20035;-81
2021/09/04 00:57:16;;;;;;;6.55;5.43;;;;;;;16.02;65.27;97326.00;4902897;29;20483;-81
2021/09/04 00:59:42;;;;;;;5.78;5.18;;;;;;;15.98;65.94;97324.19;4919055;29;20027;-81
2021/09/04 01:02:07;;;;;;;9.05;5.97;;;;;;;16.04;65.84;97329.13;4934590;23;20174;-80
2021/09/04 01:04:33;;;;;;;8.05;5.97;;;;;;;16.04;66.01;97333.59;4908709;29;20047;-80
2021/09/04 01:06:58;;;;;;;9.82;5.05;;;;;;;16.02;66.03;97319.97;4885612;29;20042;-80
2021/09/04 01:09:24;;;;;;;7.15;4.93;;;;;;;16.02;65.87;97325.22;4916277;29;20063;-80
2021/09/04 01:11:49;;;;;;;6.03;5.05;;;;;;;16.00;66.19;97325.47;4916158;29;20028;-80
2021/09/04 01:14:15;;;;;;;6.10;5.00;;;;;;;16.01;65.76;97319.19;4900128;29;20039;-80
2021/09/04 01:16:41;;;;;;;7.65;5.13;;;;;;;15.95;66.07;97315.00;4916156;29;20067;-80
2021/09/04 01:19:08;;;;;;;7.63;5.72;;;;;;;15.97;66.24;97322.63;4915953;29;20398;-80
2021/09/04 01:21:34;;;;;;;6.13;5.18;;;;;;;15.97;66.28;97320.00;4900346;29;20038;-80
2021/09/04 01:24:01;;;;;;;7.78;5.70;;;;;;;15.98;65.95;97317.09;4915831;29;20078;-80
2021/09/04 01:26:27;;;;;;;5.75;4.85;;;;;;;15.98;65.82;97311.84;4919275;28;20035;-80
2021/09/04 01:28:55;;;;;;;8.32;4.80;;;;;;;15.91;66.26;97312.16;4922447;28;20621;-80
2021/09/04 01:31:21;;;;;;;7.80;5.97;;;;;;;15.94;66.08;97312.66;4945934;29;20366;-80
2021/09/04 01:33:46;;;;;;;7.45;4.80;;;;;;;15.93;66.23;97311.88;4934763;29;20035;-80
2021/09/04 01:36:12;;;;;;;6.43;5.30;;;;;;;15.92;65.87;97310.34;4951831;29;20501;-80
2021/09/04 01:38:38;;;;;;;5.97;5.38;;;;;;;15.91;65.80;97314.78;4918942;29;20436;-80
2021/09/04 01:41:03;;;;;;;6.22;5.07;;;;;;;15.89;65.69;97314.28;4918747;29;20361;-79
2021/09/04 01:43:28;;;;;;;6.85;5.30;;;;;;;15.87;65.52;97305.91;4933870;29;20023;-80
2021/09/04 01:45:54;;;;;;;7.82;5.50;;;;;;;15.82;65.77;97308.56;4934537;29;20041;-80
2021/09/04 01:48:20;;;;;;;6.30;5.68;;;;;;;15.76;65.91;97299.16;4903070;29;20059;-80
2021/09/04 01:50:45;;;;;;;6.85;5.25;;;;;;;15.71;65.64;97301.78;4919050;29;20062;-80
2021/09/04 01:53:10;;;;;;;6.20;4.85;;;;;;;15.71;65.94;97299.97;4918479;29;20031;-80
2021/09/04 01:55:36;;;;;;;8.45;5.47;;;;;;;15.74;65.58;97301.25;4918807;29;20039;-80
2021/09/04 01:58:01;;;;;;;9.32;5.55;;;;;;;15.71;65.79;97299.97;4935242;29;20065;-80
2021/09/04 02:00:26;;;;;;;8.00;5.80;;;;;;;15.65;66.16;97295.81;4934405;29;20475;-80
2021/09/04 02:02:52;;;;;;;7.15;4.97;;;;;;;15.65;66.22;97295.03;4918188;29;20398;-80
2021/09/04 02:05:17;;;;;;;7.90;5.57;;;;;;;15.65;66.31;97290.56;4918525;29;20081;-80
2021/09/04 02:07:42;;;;;;;6.68;5.25;;;;;;;15.69;66.13;97288.16;4918700;29;20088;-80
2021/09/04 02:10:08;;;;;;;7.75;5.30;;;;;;;15.67;65.70;97280.56;4918801;29;20277;-80
2021/09/04 02:12:34;;;;;;;6.40;4.90;;;;;;;15.66;65.67;97281.63;4917457;29;20110;-80
2021/09/04 02:15:00;;;;;;;7.22;5.40;;;;;;;15.61;65.85;97278.25;4918612;29;20075;-80
2021/09/04 02:17:25;;;;;;;6.75;5.45;;;;;;;15.59;66.13;97277.75;4951374;29;20031;-80
2021/09/04 02:19:50;;;;;;;6.10;5.05;;;;;;;15.61;66.20;97273.00;4934242;29;20121;-80
2021/09/04 02:22:16;;;;;;;6.30;4.70;;;;;;;15.60;66.42;97281.94;4918176;29;20031;-80
2021/09/04 02:24:41;;;;;;;6.22;5.13;;;;;;;15.59;66.32;97275.88;4902936;29;20047;-80
2021/09/04 02:27:07;;;;;;;7.72;5.53;;;;;;;15.58;66.41;97281.44;4948992;28;20109;-80
2021/09/04 02:29:33;;;;;;;7.70;5.13;;;;;;;15.61;66.26;97280.88;4937508;28;20031;-80
2021/09/04 02:31:58;;;;;;;6.90;5.00;;;;;;;15.59;66.32;97272.50;4928606;29;20030;-80
2021/09/04 02:34:24;;;;;;;7.35;5.53;;;;;;;15.58;66.53;97278.81;4918497;29;20321;-80
2021/09/04 02:36:49;;;;;;;7.57;5.38;;;;;;;15.54;66.43;97279.34;4934125;29;20041;-79
2021/09/04 02:39:14;;;;;;;8.88;5.20;;;;;;;15.51;66.64;97273.88;4934440;29;20035;-80
2021/09/04 02:41:40;;;;;;;6.30;4.90;;;;;;;15.52;66.48;97275.41;4917894;29;20107;-80
2021/09/04 02:44:05;;;;;;;9.48;5.30;;;;;;;15.47;66.45;97268.38;4918064;29;20035;-80
2021/09/04 02:46:31;;;;;;;6.97;5.45;;;;;;;15.41;66.56;97268.69;4918708;29;20034;-80
2021/09/04 02:48:56;;;;;;;6.72;4.90;;;;;;;15.32;66.63;97271.13;4934433;29;20043;-80
2021/09/04 02:51:22;;;;;;;6.95;4.97;;;;;;;15.30;66.17;97278.44;4917824;29;20042;-80
2021/09/04 02:53:47;;;;;;;6.13;4.68;;;;;;;15.26;66.23;97267.72;4918408;29;20058;-80
2021/09/04 02:56:12;;;;;;;5.13;4.63;;;;;;;15.22;66.16;97271.94;4921846;29;20047;-80
2021/09/04 02:58:38;;;;;;;6.00;4.65;;;;;;;15.27;66.06;97276.38;4921907;29;20039;-80
2021/09/04 03:01:03;;;;;;;7.43;5.20;;;;;;;15.25;66.09;97270.59;4937654;28;20027;-80
2021/09/04 03:03:29;;;;;;;7.05;5.32;;;;;;;15.22;66.23;97265.94;4936616;29;20474;-80
2021/09/04 03:05:55;;;;;;;7.43;5.35;;;;;;;15.20;66.48;97268.81;4936927;29;20047;-80
2021/09/04 03:08:21;;;;;;;6.40;5.20;;;;;;;15.17;66.24;97262.25;4905919;29;20118;-80
2021/09/04 03:10:46;;;;;;;6.97;5.30;;;;;;;15.22;66.26;97271.94;4937201;29;20077;-80
2021/09/04 03:13:12;;;;;;;6.78;5.00;;;;;;;15.25;66.70;97270.59;4936903;29;20470;-80
2021/09/04 03:15:37;;;;;;;7.63;5.40;;;;;;;15.25;66.77;97266.16;4921352;29;20167;-80
2021/09/04 03:18:05;;;;;;;8.32;6.05;;;;;;;15.31;66.90;97269.53;4937449;29;20402;-80
2021/09/04 03:20:30;;;;;;;6.75;5.50;;;;;;;15.25;67.20;97270.59;4921294;29;20035;-80
2021/09/04 03:22:55;;;;;;;6.78;5.68;;;;;;;15.27;67.03;97265.91;4905213;29;20576;-80
2021/09/04 03:25:21;;;;;;;7.50;6.28;;;;;;;15.22;67.13;97268.56;4922377;28;20045;-80
2021/09/04 03:27:46;;;;;;;7.50;6.00;;;;;;;15.15;67.03;97264.38;4940236;28;20042;-80
2021/09/04 03:30:12;;;;;;;6.45;5.28;;;;;;;15.12;66.90;97258.91;4940257;28;20114;-79
2021/09/04 03:32:37;;;;;;;7.18;5.72;;;;;;;15.13;66.67;97263.88;4936248;28;20024;-80
2021/09/04 03:35:03;;;;;;;6.93;5.07;;;;;;;15.11;66.69;97268.63;4917809;29;20479;-80
2021/09/04 03:37:28;;;;;;;6.30;5.00;;;;;;;15.08;66.57;97256.03;4902088;29;20459;-79
2021/09/04 03:39:54;;;;;;;7.32;5.40;;;;;;;15.09;66.18;97268.06;4886618;29;20423;-79
2021/09/04 03:42:19;;;;;;;5.72;5.20;;;;;;;14.94;66.00;97258.47;4917534;29;20343;-79
2021/09/04 03:44:45;;;;;;;7.20;5.38;;;;;;;14.91;66.33;97259.00;4934491;29;20039;-80
2021/09/04 03:47:10;;;;;;;6.15;4.68;;;;;;;14.91;66.11;97260.84;4886707;29;20058;-79
2021/09/04 03:49:35;;;;;;;6.93;5.45;;;;;;;14.87;66.21;97252.72;4917396;29;20447;-79
2021/09/04 03:52:01;;;;;;;5.72;4.82;;;;;;;14.93;66.14;97269.22;4886000;29;20189;-79
2021/09/04 03:54:26;;;;;;;6.38;4.70;;;;;;;14.94;66.07;97273.41;4902025;29;20070;-79
2021/09/04 03:56:53;;;;;;;6.97;5.18;;;;;;;14.90;65.66;97264.50;4886219;29;20067;-79
2021/09/04 03:59:19;;;;;;;6.45;4.85;;;;;;;14.88;66.42;97266.63;4917958;29;20054;-79
2021/09/04 04:01:44;;;;;;;8.63;5.38;;;;;;;14.88;66.71;97272.66;4916782;29;20107;-79
2021/09/04 04:04:09;;;;;;;6.25;5.30;;;;;;;14.90;66.80;97278.41;4885745;29;20064;-79
2021/09/04 04:06:35;;;;;;;6.68;5.32;;;;;;;14.87;66.80;97265.06;4900986;29;20550;-79
2021/09/04 04:09:00;;;;;;;6.15;5.07;;;;;;;14.92;66.92;97270.25;4886265;29;20479;-79
2021/09/04 04:11:26;;;;;;;5.75;4.85;;;;;;;14.93;66.91;97259.50;4901762;29;20483;-79
2021/09/04 04:13:51;;;;;;;7.57;5.88;;;;;;;15.01;67.14;97266.03;4885489;29;20036;-79
2021/09/04 04:16:16;;;;;;;7.55;5.72;;;;;;;15.05;66.89;97259.19;4901641;29;20109;-79
2021/09/04 04:18:42;;;;;;;7.63;6.18;;;;;;;15.09;67.49;97257.59;4916886;29;20036;-80
2021/09/04 04:21:07;;;;;;;7.57;6.13;;;;;;;15.11;67.25;97255.50;4901411;29;20070;-79
2021/09/04 04:23:33;;;;;;;10.38;5.72;;;;;;;15.16;67.36;97258.09;4916566;29;20031;-79
2021/09/04 04:25:58;;;;;;;7.68;5.72;;;;;;;15.24;67.31;97258.56;4916686;29;20031;-79
2021/09/04 04:28:25;;;;;;;7.18;5.47;;;;;;;15.24;67.26;97258.56;4901228;29;20036;-79
2021/09/04 04:30:50;;;;;;;6.55;5.47;;;;;;;15.24;67.26;97261.19;4900808;29;20028;-79
2021/09/04 04:33:16;;;;;;;10.20;5.68;;;;;;;15.21;67.28;97253.84;4894578;29;20110;-79
2021/09/04 04:35:41;;;;;;;5.78;5.00;;;;;;;15.19;67.02;97255.97;4919445;29;20126;-79
2021/09/04 04:38:06;;;;;;;6.65;5.30;;;;;;;15.11;67.19;97245.00;4920374;29;20042;-79
2021/09/04 04:40:32;;;;;;;7.15;5.32;;;;;;;15.10;67.44;97250.53;4919634;29;20035;-79
2021/09/04 04:42:57;;;;;;;6.43;4.93;;;;;;;15.16;67.34;97254.66;4935348;29;20106;-79
2021/09/04 04:45:23;;;;;;;5.82;4.50;;;;;;;15.16;66.51;97252.84;4919795;29;20046;-79
2021/09/04 04:47:49;;;;;;;6.95;5.57;;;;;;;15.19;66.87;97263.84;4919976;29;20127;-79
2021/09/04 04:50:18;;;;;;;5.32;4.65;;;;;;;15.15;66.65;97258.34;4935443;29;20461;-79
2021/09/04 04:52:44;;;;;;;8.50;5.22;;;;;;;15.20;66.62;97268.00;4935095;29;20482;-79
2021/09/04 04:55:10;;;;;;;6.00;4.97;;;;;;;15.14;66.50;97265.44;4928636;28;20093;-79
2021/09/04 04:57:36;;;;;;;9.75;5.78;;;;;;;15.13;66.40;97266.50;4922900;28;20094;-79
2021/09/04 05:00:01;;;;;;;7.18;5.63;;;;;;;15.14;67.17;97270.66;4938216;28;20130;-79
2021/09/04 05:02:27;;;;;;;7.88;6.07;;;;;;;15.14;67.62;97275.13;4953374;28;20058;-79
2021/09/04 05:04:52;;;;;;;7.97;5.88;;;;;;;15.16;67.40;97278.28;4953627;28;20046;-79
2021/09/04 05:07:17;;;;;;;6.75;5.45;;;;;;;15.25;66.89;97278.47;4921808;28;20612;-79
2021/09/04 05:09:43;;;;;;;7.72;5.20;;;;;;;15.28;66.87;97275.31;4953899;28;20022;-79
2021/09/04 05:12:10;;;;;;;6.95;5.35;;;;;;;15.30;66.71;97276.63;4938160;28;20493;-79
2021/09/04 05:14:36;;;;;;;8.88;6.65;;;;;;;15.39;67.22;97276.84;4937567;28;20034;-79
2021/09/04 05:17:01;;;;;;;9.30;6.40;;;;;;;15.47;67.73;97275.44;4936556;28;20045;-79
2021/09/04 05:19:26;;;;;;;8.13;6.55;;;;;;;15.53;67.68;97275.16;4970592;28;20053;-79
2021/09/04 05:21:52;;;;;;;9.50;7.10;;;;;;;15.62;67.89;97275.34;4953084;28;20509;-79
2021/09/04 05:24:17;;;;;;;8.23;6.80;;;;;;;15.69;67.33;97275.81;4953782;28;20038;-79
2021/09/04 05:26:43;;;;;;;6.82;5.60;;;;;;;15.70;67.68;97271.38;4932561;29;20042;-79
2021/09/04 05:29:08;;;;;;;8.50;6.68;;;;;;;15.71;67.19;97270.28;4933451;29;20028;-79
2021/09/04 05:31:33;;;;;;;7.90;5.65;;;;;;;15.71;66.77;97276.34;4924525;29;20052;-79
2021/09/04 05:33:59;;;;;;;7.40;5.97;;;;;;;15.72;66.54;97274.50;4916335;29;20028;-79
2021/09/04 05:36:25;;;;;;;5.93;5.28;;;;;;;15.73;66.37;97276.06;4915797;29;20035;-79
2021/09/04 05:38:50;;;;;;;9.05;6.18;;;;;;;15.70;66.20;97281.88;4900024;29;20024;-79
2021/09/04 05:41:15;;;;;;;8.20;5.95;;;;;;;15.71;66.46;97273.72;4884657;29;20039;-80
2021/09/04 05:43:41;;;;;;;8.55;5.90;;;;;;;15.75;66.40;97284.47;4883865;29;20032;-79
2021/09/04 05:46:06;;;;;;;10.10;7.25;;;;;;;15.81;66.84;97278.13;4900139;29;20135;-80
2021/09/04 05:48:32;;;;;;;7.18;6.00;;;;;;;15.89;66.97;97288.03;4932457;29;20068;-80
2021/09/04 05:50:57;;;;;;;8.00;6.03;;;;;;;15.94;66.81;97289.03;4899705;29;20036;-79
2021/09/04 05:53:23;;;;;;;7.97;6.35;;;;;;;15.97;66.76;97283.22;4899422;29;20411;-80
2021/09/04 05:55:48;;;;;;;9.20;7.22;;;;;;;16.03;66.54;97284.78;4915186;29;20118;-79
2021/09/04 05:58:14;;;;;;;10.43;6.28;;;;;;;16.03;66.44;97284.78;4900093;29;20036;-79
2021/09/04 06:00:40;;;;;;;8.68;6.63;;;;;;;16.07;66.60;97277.88;4899473;29;20561;-80
2021/09/04 06:03:06;;;;;;;10.25;7.60;;;;;;;16.12;66.51;97279.69;4899443;29;20040;-79
2021/09/04 06:05:32;;;;;;;10.95;7.55;;;;;;;16.21;66.83;97285.91;4899369;29;20114;-79
2021/09/04 06:08:00;;;;;;;8.13;6.80;;;;;;;16.23;66.46;97283.81;4899773;29;20071;-80
2021/09/04 06:10:26;;;;;;;8.88;7.28;;;;;;;16.29;66.47;97280.81;4884826;29;20039;-79
2021/09/04 06:12:52;;;;;;;8.13;6.95;;;;;;;16.39;66.33;97281.78;4899466;29;20035;-79
2021/09/04 06:15:17;;;;;;;9.65;6.78;;;;;;;16.45;66.17;97283.28;4884404;29;20114;-79
2021/09/04 06:17:42;;;;;;;8.98;7.20;;;;;;;16.58;66.08;97282.63;4899651;29;20479;-79
2021/09/04 06:20:09;;;;;;;8.48;7.20;;;;;;;16.75;66.02;97286.66;4932533;29;20467;-80
2021/09/04 06:22:35;;;;;;;9.32;7.32;;;;;;;16.88;65.71;97291.25;4898861;29;20075;-80
2021/09/04 06:25:01;;;;;;;9.18;7.43;;;;;;;16.99;65.58;97284.03;4900083;29;20032;-80
2021/09/04 06:27:26;;;;;;;9.05;7.32;;;;;;;17.05;65.50;97285.53;4950020;28;20050;-79
2021/09/04 06:29:52;;;;;;;8.45;7.35;;;;;;;17.16;64.83;97289.56;4956284;28;20026;-80
2021/09/04 06:32:17;;;;;;;8.80;7.47;;;;;;;17.27;65.05;97289.44;4909795;29;20062;-80
2021/09/04 06:34:42;;;;;;;9.65;7.13;;;;;;;17.26;64.78;97293.91;4916686;29;20522;-80
2021/09/04 06:37:09;;;;;;;9.43;7.07;;;;;;;17.33;65.01;97301.47;4937580;29;20031;-80
2021/09/04 06:39:35;;;;;;;9.10;6.88;;;;;;;17.32;64.72;97302.53;4937556;29;20110;-80
2021/09/04 06:42:00;;;;;;;8.68;6.85;;;;;;;17.28;64.71;97297.03;4906189;29;20138;-80
2021/09/04 06:44:25;;;;;;;7.18;6.07;;;;;;;17.37;64.56;97297.97;4922302;29;20086;-80
2021/09/04 06:46:51;;;;;;;8.32;6.05;;;;;;;17.32;64.36;97294.63;4921696;29;20034;-80
2021/09/04 06:49:16;;;;;;;7.82;6.47;;;;;;;17.42;64.17;97292.63;4922070;29;20035;-80
2021/09/04 06:51:44;;;;;;;7.45;6.18;;;;;;;17.41;64.55;97298.97;4921280;29;20178;-80
2021/09/04 06:54:10;;;;;;;9.15;6.72;;;;;;;17.61;63.95;97297.09;4936017;29;20390;-80
2021/09/04 06:56:35;;;;;;;8.75;5.93;;;;;;;17.71;63.95;97298.78;4936532;28;20038;-80
2021/09/04 06:59:01;;;;;;;7.35;6.10;;;;;;;17.79;63.61;97296.28;4941133;28;20625;-80
2021/09/04 07:01:26;;;;;;;6.60;5.45;;;;;;;17.93;63.24;97296.34;4940829;28;20070;-80
2021/09/04 07:03:51;;;;;;;7.60;6.00;;;;;;;18.06;62.95;97300.09;4940538;28;20143;-80
2021/09/04 07:06:17;;;;;;;6.72;5.88;;;;;;;18.25;62.29;97307.16;4938517;28;20041;-80
2021/09/04 07:08:42;;;;;;;8.85;6.18;;;;;;;18.30;61.83;97299.16;4940237;28;20058;-80
2021/09/04 07:11:08;;;;;;;7.18;6.45;;;;;;;18.38;61.53;97305.63;4940886;28;20389;-81
2021/09/04 07:13:34;;;;;;;8.35;6.40;;;;;;;18.54;61.07;97309.53;4940217;28;20086;-81
2021/09/04 07:15:59;;;;;;;8.48;7.15;;;;;;;18.64;61.04;97317.25;4925142;28;20038;-80
2021/09/04 07:18:24;;;;;;;7.30;5.78;;;;;;;18.88;60.84;97324.22;4940319;28;20027;-80
2021/09/04 07:20:50;;;;;;;9.75;6.65;;;;;;;19.08;60.27;97309.81;4940303;28;20035;-80
2021/09/04 07:23:16;;;;;;;7.20;6.20;;;;;;;19.35;59.65;97314.25;4956362;28;20035;-80
2021/09/04 07:25:41;;;;;;;7.03;6.15;;;;;;;19.49;59.65;97314.22;4956467;28;20106;-80
2021/09/04 07:28:07;;;;;;;7.30;5.53;;;;;;;19.72;58.66;97306.31;4924758;28;20125;-80
2021/09/04 07:30:33;;;;;;;6.38;5.65;;;;;;;19.86;58.23;97307.06;4938749;28;20035;-80
2021/09/04 07:32:59;;;;;;;8.13;5.57;;;;;;;20.00;58.12;97310.41;4937088;29;20078;-80
2021/09/04 07:35:24;;;;;;;6.80;5.55;;;;;;;20.32;57.17;97315.69;4921532;29;20027;-79
2021/09/04 07:37:50;;;;;;;6.80;5.22;;;;;;;20.35;57.16;97309.81;4937122;29;20378;-80
2021/09/04 07:40:15;;;;;;;5.93;5.15;;;;;;;20.62;56.69;97319.44;4920730;29;20143;-80
2021/09/04 07:42:41;;;;;;;6.40;5.05;;;;;;;20.88;56.10;97326.69;4952609;29;20042;-80
2021/09/04 07:45:06;;;;;;;6.13;5.53;;;;;;;20.90;55.32;97321.84;4936968;29;20333;-80
2021/09/04 07:47:32;;;;;;;6.10;5.45;;;;;;;21.28;55.20;97324.72;4936803;29;20241;-80
2021/09/04 07:49:57;;;;;;;7.38;5.53;;;;;;;21.53;54.50;97319.00;4936929;29;20035;-80
2021/09/04 07:52:23;;;;;;;7.85;5.40;;;;;;;21.65;53.66;97321.81;4936736;29;20058;-80
2021/09/04 07:54:48;;;;;;;6.97;5.57;;;;;;;21.87;54.00;97320.84;4921187;29;20097;-80
2021/09/04 07:57:13;;;;;;;6.32;5.25;;;;;;;21.98;52.96;97323.94;4921190;29;20280;-80
2021/09/04 07:59:39;;;;;;;5.72;5.05;;;;;;;22.14;52.96;97327.66;4952601;29;20039;-80
2021/09/04 08:02:04;;;;;;;6.00;5.25;;;;;;;22.24;52.75;97319.38;4936072;29;20027;-80
2021/09/04 08:04:30;;;;;;;5.75;5.15;;;;;;;22.36;52.13;97320.59;4936667;29;20043;-80
2021/09/04 08:06:55;;;;;;;5.97;5.38;;;;;;;22.65;50.75;97327.03;4953781;29;20596;-80
2021/09/04 08:09:20;;;;;;;6.45;5.20;;;;;;;22.73;51.44;97327.00;4952549;29;20050;-80
2021/09/04 08:11:46;;;;;;;6.50;5.28;;;;;;;22.87;51.15;97326.75;4936299;29;20042;-79
2021/09/04 08:14:11;;;;;;;7.60;5.20;;;;;;;23.11;50.15;97325.41;4936728;29;20471;-77
2021/09/04 08:16:37;;;;;;;7.30;5.57;;;;;;;22.88;50.75;97333.66;4904456;29;20034;-77
2021/09/04 08:19:03;;;;;;;6.28;5.07;;;;;;;23.09;50.59;97328.38;4935558;29;20090;-77
2021/09/04 08:21:28;;;;;;;4.65;4.25;;;;;;;23.33;49.92;97317.13;4935557;29;20047;-77
2021/09/04 08:23:54;;;;;;;5.93;5.30;;;;;;;23.34;49.58;97323.25;4920164;29;20027;-77
2021/09/04 08:26:19;;;;;;;6.97;5.43;;;;;;;23.53;49.52;97325.44;4944613;28;20438;-77
2021/09/04 08:28:45;;;;;;;5.35;4.85;;;;;;;23.62;48.92;97328.78;4954549;28;20046;-77
2021/09/04 08:31:10;;;;;;;6.75;5.10;;;;;;;23.97;47.80;97323.16;4941053;29;20051;-77
2021/09/04 08:33:36;;;;;;;5.40;4.82;;;;;;;24.02;48.22;97325.63;4916062;29;20065;-77
2021/09/04 08:36:01;;;;;;;5.40;4.90;;;;;;;24.31;47.40;97329.25;4900528;29;20059;-77
2021/09/04 08:38:26;;;;;;;5.60;4.82;;;;;;;24.45;47.32;97321.72;4916319;29;20042;-77
2021/09/04 08:40:53;;;;;;;5.80;5.20;;;;;;;24.79;46.59;97326.97;4932008;29;20512;-77
2021/09/04 08:43:19;;;;;;;5.55;4.97;;;;;;;25.07;45.89;97331.59;4931767;29;20203;-77
2021/09/04 08:45:45;;;;;;;5.30;4.63;;;;;;;25.30;45.38;97327.38;4900335;29;20112;-77
2021/09/04 08:48:10;;;;;;;6.30;5.15;;;;;;;25.16;44.83;97329.59;4885176;29;20486;-77
2021/09/04 08:50:36;;;;;;;5.28;4.75;;;;;;;25.34;44.75;97330.91;4900264;29;20040;-77
2021/09/04 08:53:03;;;;;;;5.40;4.47;;;;;;;25.34;44.29;97336.22;4915625;29;20032;-77
2021/09/04 08:55:28;;;;;;;5.95;5.35;;;;;;;25.60;44.58;97338.50;4918339;29;20034;-77
2021/09/04 08:57:55;;;;;;;5.07;4.68;;;;;;;25.39;44.58;97335.22;4938230;28;20035;-77
2021/09/04 09:00:32;;;;;;;5.20;4.70;;;;;;;25.36;44.24;97338.56;4922546;28;20493;-77
2021/09/04 09:02:58;;;;;;;5.43;4.15;;;;;;;25.60;44.61;97337.72;4953336;28;20279;-77
2021/09/04 09:05:24;;;;;;;4.95;4.45;;;;;;;25.64;44.28;97332.50;4938490;28;20433;-77
2021/09/04 09:07:49;;;;;;;4.43;4.03;;;;;;;26.07;43.63;97331.75;4919411;29;20058;-77
2021/09/04 09:10:21;;;;;;;4.82;4.32;;;;;;;26.02;43.27;97339.25;4937020;28;20031;-78
2021/09/04 09:12:46;;;;;;;5.18;4.68;;;;;;;26.08;42.66;97332.53;4954126;28;20508;-77
2021/09/04 09:15:19;;;;;;;5.53;5.03;;;;;;;25.94;43.10;97352.41;4938609;28;20035;-77
2021/09/04 09:17:56;;;;;;;5.03;4.63;;;;;;;25.94;43.10;97338.25;4937999;28;20096;-77
2021/09/04 09:20:25;;;;;;;5.15;4.22;;;;;;;26.32;42.63;97339.59;4938151;28;20453;-77
2021/09/04 09:22:51;;;;;;;6.28;4.22;;;;;;;26.31;42.28;97344.19;4922082;28;20031;-78
2021/09/04 09:25:20;;;;;;;4.88;4.43;;;;;;;26.43;43.02;97337.22;4938127;28;20043;-78
2021/09/04 09:28:11;;;;;;;4.70;4.20;;;;;;;26.80;42.74;97335.06;4954387;28;20042;-78
2021/09/04 09:30:38;;;;;;;5.05;4.35;;;;;;;26.85;41.41;97336.69;4917870;28;20042;-78
2021/09/04 09:33:04;;;;;;;5.13;4.63;;;;;;;26.76;41.15;97338.78;4932479;29;20031;-78
2021/09/04 09:35:41;;;;;;;4.60;4.18;;;;;;;26.61;41.48;97343.75;4950859;29;20031;-78
2021/09/04 09:38:09;;;;;;;7.07;4.60;;;;;;;26.89;40.47;97337.56;4934832;29;20588;-78
2021/09/04 09:40:35;;;;;;;5.20;4.38;;;;;;;26.89;40.66;97342.91;4934601;29;20027;-78
2021/09/04 09:43:02;;;;;;;5.47;4.95;;;;;;;26.97;41.15;97330.47;4902399;29;20023;-77
2021/09/04 09:45:50;;;;;;;4.70;4.30;;;;;;;26.62;41.41;97331.97;4918698;29;20039;-78
2021/09/04 09:48:20;;;;;;;5.47;4.60;;;;;;;26.85;40.77;97323.34;4918757;29;20435;-78
2021/09/04 09:50:46;;;;;;;4.70;4.20;;;;;;;26.99;41.19;97331.69;4918315;29;20455;-78
2021/09/04 09:53:11;;;;;;;4.43;4.03;;;;;;;27.10;41.30;97324.66;4934298;29;20063;-78
2021/09/04 09:55:41;;;;;;;5.85;4.32;;;;;;;27.01;40.53;97321.41;4934450;29;20035;-78
2021/09/04 09:58:08;;;;;;;5.10;4.60;;;;;;;27.28;40.26;97318.94;4950422;29;20046;-79
2021/09/04 10:00:33;;;;;;;6.72;4.82;;;;;;;27.54;40.10;97323.66;4902868;29;20051;-77
2021/09/04 10:03:00;;;;;;;5.45;4.90;;;;;;;27.90;38.36;97326.22;4950685;28;20031;-78
2021/09/04 10:05:30;;;;;;;4.80;4.40;;;;;;;27.92;38.83;97321.34;4934257;29;20130;-78
2021/09/04 10:07:57;;;;;;;4.38;3.85;;;;;;;28.07;38.48;97317.78;4918562;29;20082;-78
2021/09/04 10:10:43;;;;;;;5.43;4.32;;;;;;;27.75;39.57;97317.94;4902347;29;20046;-78
2021/09/04 10:13:08;;;;;;;5.07;4.05;;;;;;;28.07;39.08;97317.78;4950196;29;20020;-78
2021/09/04 10:15:35;;;;;;;7.57;4.22;;;;;;;28.19;37.68;97304.22;4950380;29;20114;-78
2021/09/04 10:18:04;;;;;;;4.95;4.40;;;;;;;28.36;36.88;97302.97;4918240;29;20415;-78
2021/09/04 10:20:30;;;;;;;4.55;4.15;;;;;;;28.51;38.52;97309.31;4934735;29;20124;-78
2021/09/04 10:23:20;;;;;;;4.93;4.53;;;;;;;27.99;37.29;97308.09;4934190;29;20370;-77
2021/09/04 10:25:45;;;;;;;4.35;3.70;;;;;;;28.45;36.86;97304.66;4954737;28;20488;-77
2021/09/04 10:28:11;;;;;;;4.38;3.97;;;;;;;28.36;36.81;97304.88;4922064;28;20035;-78
2021/09/04 10:30:39;;;;;;;4.55;4.15;;;;;;;28.53;37.37;97308.94;4932950;28;20042;-77
2021/09/04 10:33:12;;;;;;;3.65;3.35;;;;;;;28.70;35.83;97297.00;4884145;29;20070;-78
2021/09/04 10:35:45;;;;;;;5.55;4.50;;;;;;;28.79;36.51;97299.41;4921723;29;20046;-78
2021/09/04 10:38:20;;;;;;;4.55;4.15;;;;;;;28.37;35.96;97307.19;4915450;29;20483;-78
2021/09/04 10:40:45;;;;;;;;;;;;;;;28.16;36.68;97304.16;4915565;29;20368;-78
2021/09/04 10:43:12;;;;;;;7.60;4.37;;;;;;;28.84;35.33;97299.88;4931952;29;19921;-78
2021/09/04 10:45:38;;;;;;;4.50;4.10;;;;;;;28.86;34.85;97292.25;4900072;29;20358;-78
2021/09/04 10:48:36;;;;;;;4.07;3.67;;;;;;;28.52;34.42;97297.47;4915453;29;20511;-78
2021/09/04 10:51:08;;;;;;;4.50;4.10;;;;;;;29.04;35.70;97295.16;4884049;29;20055;-77
2021/09/04 10:53:46;;;;;;;4.25;3.83;;;;;;;29.50;32.58;97303.03;4899569;29;20036;-77
2021/09/04 10:56:19;;;;;;;4.43;4.05;;;;;;;29.98;33.21;97283.59;4882400;29;20073;-77
2021/09/04 10:58:45;;;;;;;4.43;4.03;;;;;;;29.95;33.98;97297.00;4950336;29;20122;-77
2021/09/04 11:01:16;;;;;;;3.95;3.65;;;;;;;28.90;35.34;97293.06;4933314;29;20378;-78
2021/09/04 11:03:42;;;;;;;4.50;4.10;;;;;;;29.09;34.24;97288.72;4917945;29;20081;-78
2021/09/04 11:06:08;;;;;;;4.20;3.90;;;;;;;29.12;34.50;97290.69;4951099;29;20522;-78
2021/09/04 11:08:43;;;;;;;3.97;3.67;;;;;;;29.08;35.32;97287.16;4951121;29;20402;-78
2021/09/04 11:11:10;;;;;;;3.78;3.47;;;;;;;29.72;34.41;97287.16;4933644;29;20057;-78
2021/09/04 11:13:40;;;;;;;4.05;3.75;;;;;;;29.92;33.78;97285.09;4917485;29;20032;-78
2021/09/04 11:16:28;;;;;;;4.25;3.85;;;;;;;29.93;32.58;97281.25;4920975;29;20035;-79
2021/09/04 11:18:59;;;;;;;4.10;3.70;;;;;;;30.56;33.03;97286.78;4920626;29;20106;-77
2021/09/04 11:21:24;;;;;;;4.40;4.00;;;;;;;31.36;30.98;97283.38;4920421;29;20066;-77
2021/09/04 11:23:50;;;;;;;4.00;3.60;;;;;;;30.71;30.24;97285.72;4921397;29;20031;-78
2021/09/04 11:26:16;;;;;;;4.00;3.55;;;;;;;30.59;30.20;97286.81;4936579;29;20175;-78
2021/09/04 11:28:41;;;;;;;3.42;3.10;;;;;;;30.87;30.79;97282.75;4936851;29;20083;-78
2021/09/04 11:31:07;;;;;;;3.53;3.20;;;;;;;30.92;31.93;97287.00;4930552;29;20117;-77